Nearby METAR Reports

 

CYUL - Montreal/Dorval, Quebec, Canada
Distance from station: ENE 6km
Updated: 02/19/2018 14:00 EST
Mostly cloudy
Mostly cloudy
 Wind from SE
Wind: SE 15 km/h
Temperature: 6°C
Wind Chill: 3°C
Dew Point: -4°C
Humidity: 49%
Barometer: 1021.3 hPa
Clouds: Mostly cloudy
Visibility: 48 km
Cloud details: Few Clouds 5791 m
Mostly cloudy 7315 m
2018/02/19 19:00 CYUL 191900Z 14008KT 30SM FEW190 BKN240 06/M04 A3016 RMK AC1CI6 AC TR SLP215
CWVQ - Ste Anne De Bell, Quebec, Canada
Distance from station: WSW 10km
Updated: 02/19/2018 14:00 EST

 Wind from SE
Wind: SE 9 km/h
Temperature: 6°C
Wind Chill: 4°C
Dew Point: -3°C
Humidity: 53%
2018/02/19 19:00 CWVQ 191900Z AUTO 13005KT 06/M03 RMK AO1 SOG 26 6022 SLP211 T00591031
 
CWTA - Mc Tavish (aut), Quebec, Canada
Distance from station: ENE 18km
Updated: 02/19/2018 14:00 EST

 Wind from S
Wind: S 9 km/h
Temperature: 5°C
Wind Chill: 3°C
Dew Point: -4°C
Humidity: 53%
2018/02/19 19:00 CWTA 191900Z AUTO 19005KT 05/M04 RMK AO1 SOG 74 6025 SLP214 T00541038
CYMX - Montreal/Mirabel, Quebec, Canada
Distance from station: NW 29km
Updated: 02/19/2018 14:00 EST
Mostly cloudy
Mostly cloudy
 Wind from N
Wind: N 6 km/h
Temperature: 4°C
Dew Point: -5°C
Humidity: 52%
Barometer: 1021 hPa
Clouds: Mostly cloudy
Visibility: 40 km
Cloud details: Partly cloudy 3658 m
Mostly cloudy 7620 m
2018/02/19 19:00 CYMX 191900Z 36003KT 330V040 25SM SCT120 BKN250 04/M05 A3015 RMK AC3CI3 SLP215
 
CYHU - Saint Hubert Arp, Quebec, Canada
Distance from station: ENE 31km
Updated: 02/19/2018 14:00 EST
Clear
Clear
 Wind from S
Wind: S 30 km/h, Gust: 43 km/h
Temperature: 4°C
Wind Chill: -1°C
Dew Point: -3°C
Humidity: 61%
Barometer: 1021.3 hPa
Clouds: Clear
Visibility: 14 km
2018/02/19 19:00 CYHU 191900Z AUTO 18016G23KT 9SM CLR 04/M03 A3016 RMK SLP217
CWIT - St Clothilde (a, Quebec, Canada
Distance from station: SSE 33km
Updated: 02/19/2018 14:00 EST

 Wind from SSE
Wind: SSE 22 km/h, Gust: 39 km/h
Temperature: 6°C
Wind Chill: 2°C
Dew Point: -4°C
Humidity: 49%
2018/02/19 19:00 CWIT 191900Z AUTO 16012G21KT 06/M04 RMK AO1 SOG 12 6023 PK WND 17021/1853 SLP205 T00601036
 
CWIZ - L'acadie, Quebec, Canada
Distance from station: ESE 41km
Updated: 02/19/2018 14:00 EST

 Wind from S
Wind: S 35 km/h
Temperature: 3°C
Wind Chill: -3°C
Dew Point: -3°C
Humidity: 65%
2018/02/19 19:00 CWIZ 191900Z AUTO 18019KT 03/M03 RMK AO1 SOG 26 PK WND 17026/1802 T00341031
CWHM - Varennes, Quebec, Canada
Distance from station: NE 45km
Updated: 10/25/2016 10:00 EDT
NOT Current

 Wind from W
Wind: W 19 km/h, Gust: 28 km/h
Temperature: 4°C
Wind Chill: 0°C
Dew Point: -2°C
Humidity: 65%
2016/10/25 14:00 CWHM 251400Z AUTO 28010G15KT 04/M02 RMK AO1 PK WND 28018/1302 T00391017
 
CWEW - L'assomption, Quebec, Canada
Distance from station: NE 50km
Updated: 02/19/2018 14:00 EST

 Wind from S
Wind: S 9 km/h
Temperature: 5°C
Wind Chill: 3°C
Dew Point: -4°C
Humidity: 53%
2018/02/19 19:00 CWEW 191900Z AUTO 18005KT 05/M04 RMK AO1 SOG 26 7026 SLP220 T00471043
CWBZ - St Anicet, Quebec, Canada
Distance from station: SW 52km
Updated: 02/19/2018 14:00 EST

 Wind from NE
Wind: NE 7 km/h
Temperature: 7°C
Wind Chill: 6°C
Dew Point: -3°C
Humidity: 49%
2018/02/19 19:00 CWBZ 191900Z AUTO 04004KT 07/M03 RMK AO1 SLP205 T00711034 56020
 
KFSO - Highgate, Vermont, USA
Distance from station: SE 79km
Updated: 02/19/2018 14:35 EST
Clear
Clear
 Wind from S
Wind: S 30 km/h, Gust: 39 km/h
Temperature: 6°C
Wind Chill: 2°C
Dew Point: -2°C
Humidity: 57%
Barometer: 1022 hPa
Clouds: Clear
Visibility: 16 km
2018/02/19 19:35 KFSO 191935Z AUTO 18016G21KT 10SM CLR 06/M02 A3018 RMK AO2 T00611025
CMGB - Granby, Quebec, Canada
Distance from station: E 81km
Updated: 02/19/2018 14:45 EST

 Wind from S
Wind: S 9 km/h
Temperature: 7°C
Wind Chill: 6°C
Dew Point: -3°C
Humidity: 49%
2018/02/19 19:45 CMGB 191945Z AUTO 19005KT 07/M03 RMK AO1 SOG 29 6025 SLP218 T00721032
 
CWJT - St Jovite (autob, Quebec, Canada
Distance from station: NW 88km
Updated: 02/19/2018 14:00 EST

 Wind from SSW
Wind: SSW 7 km/h
Temperature: 5°C
Wind Chill: 3°C
Dew Point: -3°C
Humidity: 57%
2018/02/19 19:00 CWJT 191900Z AUTO 20004KT 05/M03 RMK AO1 SLP207 T00481029 56017
CWFQ - Frelighsburg, Quebec, Canada
Distance from station: ESE 90km
Updated: 02/19/2018 14:00 EST

 Wind from S
Wind: S 17 km/h, Gust: 30 km/h
Temperature: 6°C
Wind Chill: 3°C
Dew Point: -4°C
Humidity: 49%
2018/02/19 19:00 CWFQ 191900Z AUTO 18009G16KT 06/M04 RMK AO1 SOG 18 6024 PK WND 19020/1807 SLP219 T00621041
 
KPBG - Plattsburgh Afb, New York, USA
Distance from station: SSE 93km
Updated: 02/19/2018 13:53 EST
Clear
Clear
 Wind from SSE
Wind: SSE 37 km/h, Gust: 57 km/h
Temperature: 6°C
Wind Chill: 1°C
Dew Point: -3°C
Humidity: 53%
Barometer: 1022 hPa
Clouds: Clear
Visibility: 16 km
2018/02/19 18:53 KPBG 191853Z AUTO 15020G31KT 10SM CLR 06/M03 A3018 RMK AO2 PK WND 14031/1846 SLP224 T00561028
KMSS - Massena, New York, USA
Distance from station: SW 100km
Updated: 02/19/2018 13:53 EST
Overcast
Overcast
 Wind from SW
Wind: SW 11 km/h
Temperature: 8°C
Wind Chill: 6°C
Dew Point: -1°C
Humidity: 53%
Barometer: 1020.3 hPa
Clouds: Overcast
Visibility: 16 km
Cloud details: Overcast 2438 m
2018/02/19 18:53 KMSS 191853Z AUTO 22006KT 10SM OVC080 08/M01 A3013 RMK AO2 SLP209 T00831006
 
CWBS - Lac St Pierre (a, Quebec, Canada
Distance from station: NE 106km
Updated: 02/19/2018 14:00 EST

 Wind from SSW
Wind: SSW 19 km/h
Temperature: 3°C
Wind Chill: -2°C
Dew Point: -3°C
Humidity: 65%
2018/02/19 19:00 CWBS 191900Z AUTO 20010KT 03/M03 RMK AO1 T00281027
KBTV - Burlington, Vermont, USA
Distance from station: SSE 121km
Updated: 02/19/2018 13:54 EST
Mostly cloudy
Mostly cloudy
 Wind from S
Wind: S 31 km/h, Gust: 52 km/h
Temperature: 7°C
Wind Chill: 3°C
Dew Point: -3°C
Humidity: 49%
Barometer: 1023 hPa
Clouds: Mostly cloudy
Visibility: 16 km
Cloud details: Partly cloudy 1676 m
Mostly cloudy 3353 m
2018/02/19 18:54 KBTV 191854Z 19017G28KT 10SM SCT055 BKN110 07/M03 A3021 RMK AO2 PK WND 19031/1756 SLP235 T00671028
 
KSLK - Saranac Lake, New York, USA
Distance from station: SSW 121km
Updated: 02/19/2018 14:51 EST
Light rain, Overcast
Light rain, Overcast
 
Temperature: 4°C
Dew Point: -1°C
Humidity: 70%
Barometer: 1020 hPa
Summary: Light rain
Clouds: Overcast
Visibility: 16 km
Cloud details: Overcast 884 m
2018/02/19 19:51 KSLK 191951Z AUTO 10SM -RA OVC029 04/M01 A3012 RMK AO2 RAB37 SLP219 P0000 T00441006 $
CWNQ - Nicolet (autob), Quebec, Canada
Distance from station: NE 123km
Updated: 02/19/2018 14:00 EST

 Wind from SSW
Wind: SSW 15 km/h
Temperature: 4°C
Wind Chill: 1°C
Dew Point: -3°C
Humidity: 61%
2018/02/19 19:00 CWNQ 191900Z AUTO 20008KT 04/M03 RMK AO1 SLP213 T00421034 58025
 
KMWN - Mount Washington, New Hampshire, USA
Distance from station: SE 237km
Updated: 02/19/2018 14:47 EST
Freezing fog, Overcast
Freezing fog, Overcast
 Wind from WSW
Wind: WSW 81 km/h, Gust: 93 km/h
Temperature: -5°C
Wind Chill: -17°C
Dew Point: -5°C
Humidity: 100%
Summary: Freezing Fog
Clouds: Overcast
Visibility: 0 km
Cloud details: Overcast 0 m
2018/02/19 19:47 KMWN 191947Z 25044G50KT 0SM FZFG VV000 M05/M05 RMK VRY LGT ICG
CYVR - Vancouver Intl A, British Columbia, Canada
Distance from station: NW 3676km
Updated: 02/19/2018 14:00 EST
Partly cloudy
Partly cloudy
 Wind from SSE
Wind: SSE 6 km/h
Temperature: -1°C
Dew Point: -12°C
Humidity: 43%
Barometer: 1025.4 hPa
Clouds: Partly cloudy
Visibility: 48 km
Cloud details: Few Clouds 914 m
Partly cloudy 7620 m
2018/02/19 19:00 CYVR 191900Z 15003KT 120V200 30SM FEW030 SCT250 M01/M12 A3028 RMK SC1CI3 SLP256